sensor_id;sensor_type;location;lat;lon;timestamp;P1;durP1;ratioP1;P2;durP2;ratioP2
20348;SDS011;10332;50.208;18.988;2024-01-15T00:02:15;19.23;;;10.27;;
20348;SDS011;10332;50.208;18.988;2024-01-15T00:04:42;22.80;;;10.17;;
20348;SDS011;10332;50.208;18.988;2024-01-15T00:07:10;20.27;;;10.60;;
20348;SDS011;10332;50.208;18.988;2024-01-15T00:09:37;21.23;;;10.77;;
20348;SDS011;10332;50.208;18.988;2024-01-15T00:12:05;18.73;;;9.13;;
20348;SDS011;10332;50.208;18.988;2024-01-15T00:14:32;19.27;;;9.93;;
20348;SDS011;10332;50.208;18.988;2024-01-15T00:16:59;15.40;;;8.53;;
20348;SDS011;10332;50.208;18.988;2024-01-15T00:19:27;17.10;;;8.73;;
20348;SDS011;10332;50.208;18.988;2024-01-15T00:21:54;17.23;;;8.67;;
20348;SDS011;10332;50.208;18.988;2024-01-15T00:24:22;15.47;;;7.97;;
20348;SDS011;10332;50.208;18.988;2024-01-15T00:26:49;20.77;;;9.23;;
20348;SDS011;10332;50.208;18.988;2024-01-15T00:29:17;17.87;;;9.00;;
20348;SDS011;10332;50.208;18.988;2024-01-15T00:31:44;15.67;;;8.00;;
20348;SDS011;10332;50.208;18.988;2024-01-15T00:34:12;16.00;;;8.23;;
20348;SDS011;10332;50.208;18.988;2024-01-15T00:36:39;17.10;;;8.80;;
20348;SDS011;10332;50.208;18.988;2024-01-15T00:39:06;21.10;;;10.00;;
20348;SDS011;10332;50.208;18.988;2024-01-15T00:41:34;21.43;;;10.07;;
20348;SDS011;10332;50.208;18.988;2024-01-15T00:44:01;18.60;;;9.68;;
20348;SDS011;10332;50.208;18.988;2024-01-15T00:46:29;16.00;;;8.87;;
20348;SDS011;10332;50.208;18.988;2024-01-15T00:48:56;17.97;;;8.57;;
20348;SDS011;10332;50.208;18.988;2024-01-15T00:51:24;13.70;;;7.53;;
20348;SDS011;10332;50.208;18.988;2024-01-15T00:53:51;18.97;;;8.73;;
20348;SDS011;10332;50.208;18.988;2024-01-15T00:56:19;15.17;;;8.03;;
20348;SDS011;10332;50.208;18.988;2024-01-15T00:58:46;14.03;;;7.93;;
20348;SDS011;10332;50.208;18.988;2024-01-15T01:01:13;14.03;;;8.23;;
20348;SDS011;10332;50.208;18.988;2024-01-15T01:03:40;15.50;;;8.67;;
20348;SDS011;10332;50.208;18.988;2024-01-15T01:06:08;16.13;;;8.47;;
20348;SDS011;10332;50.208;18.988;2024-01-15T01:08:36;17.20;;;8.30;;
20348;SDS011;10332;50.208;18.988;2024-01-15T01:11:04;16.23;;;8.77;;
20348;SDS011;10332;50.208;18.988;2024-01-15T01:13:33;13.53;;;8.73;;
20348;SDS011;10332;50.208;18.988;2024-01-15T01:16:00;17.93;;;9.00;;
20348;SDS011;10332;50.208;18.988;2024-01-15T01:18:27;15.40;;;8.80;;
20348;SDS011;10332;50.208;18.988;2024-01-15T01:20:55;16.63;;;8.63;;
20348;SDS011;10332;50.208;18.988;2024-01-15T01:23:22;15.10;;;8.17;;
20348;SDS011;10332;50.208;18.988;2024-01-15T01:25:50;14.37;;;7.40;;
20348;SDS011;10332;50.208;18.988;2024-01-15T01:28:17;10.83;;;6.53;;
20348;SDS011;10332;50.208;18.988;2024-01-15T01:30:44;12.67;;;6.53;;
20348;SDS011;10332;50.208;18.988;2024-01-15T01:33:12;10.27;;;5.93;;
20348;SDS011;10332;50.208;18.988;2024-01-15T01:35:39;12.27;;;6.03;;
20348;SDS011;10332;50.208;18.988;2024-01-15T01:38:07;10.63;;;6.23;;
20348;SDS011;10332;50.208;18.988;2024-01-15T01:40:34;11.03;;;5.97;;
20348;SDS011;10332;50.208;18.988;2024-01-15T01:43:02;11.37;;;6.33;;
20348;SDS011;10332;50.208;18.988;2024-01-15T01:45:31;14.27;;;6.73;;
20348;SDS011;10332;50.208;18.988;2024-01-15T01:47:59;11.47;;;6.43;;
20348;SDS011;10332;50.208;18.988;2024-01-15T01:50:28;11.67;;;6.23;;
20348;SDS011;10332;50.208;18.988;2024-01-15T01:52:58;10.40;;;5.90;;
20348;SDS011;10332;50.208;18.988;2024-01-15T01:55:27;11.13;;;5.73;;
20348;SDS011;10332;50.208;18.988;2024-01-15T01:57:57;11.50;;;6.40;;
20348;SDS011;10332;50.208;18.988;2024-01-15T02:00:24;13.37;;;5.87;;
20348;SDS011;10332;50.208;18.988;2024-01-15T02:02:52;11.00;;;5.50;;
20348;SDS011;10332;50.208;18.988;2024-01-15T02:05:20;10.20;;;5.43;;
20348;SDS011;10332;50.208;18.988;2024-01-15T02:07:49;9.47;;;5.10;;
20348;SDS011;10332;50.208;18.988;2024-01-15T02:10:16;10.63;;;4.90;;
20348;SDS011;10332;50.208;18.988;2024-01-15T02:12:43;10.67;;;5.17;;
20348;SDS011;10332;50.208;18.988;2024-01-15T02:15:11;10.73;;;5.53;;
20348;SDS011;10332;50.208;18.988;2024-01-15T02:20:36;9.87;;;5.00;;
20348;SDS011;10332;50.208;18.988;2024-01-15T02:25:40;9.93;;;4.73;;
20348;SDS011;10332;50.208;18.988;2024-01-15T02:28:09;10.63;;;4.73;;
20348;SDS011;10332;50.208;18.988;2024-01-15T02:30:38;8.87;;;4.90;;
20348;SDS011;10332;50.208;18.988;2024-01-15T02:33:07;7.13;;;4.53;;
20348;SDS011;10332;50.208;18.988;2024-01-15T02:35:35;9.40;;;5.07;;
20348;SDS011;10332;50.208;18.988;2024-01-15T02:38:03;7.70;;;4.20;;
20348;SDS011;10332;50.208;18.988;2024-01-15T02:40:32;6.90;;;4.07;;
20348;SDS011;10332;50.208;18.988;2024-01-15T02:43:00;9.57;;;4.87;;
20348;SDS011;10332;50.208;18.988;2024-01-15T02:45:27;10.20;;;5.03;;
20348;SDS011;10332;50.208;18.988;2024-01-15T02:47:54;9.57;;;4.47;;
20348;SDS011;10332;50.208;18.988;2024-01-15T02:50:22;8.93;;;4.30;;
20348;SDS011;10332;50.208;18.988;2024-01-15T02:52:49;8.87;;;4.73;;
20348;SDS011;10332;50.208;18.988;2024-01-15T02:55:17;7.37;;;3.80;;
20348;SDS011;10332;50.208;18.988;2024-01-15T02:57:44;8.90;;;4.73;;
20348;SDS011;10332;50.208;18.988;2024-01-15T03:00:12;7.83;;;4.17;;
20348;SDS011;10332;50.208;18.988;2024-01-15T03:02:40;10.38;;;4.45;;
20348;SDS011;10332;50.208;18.988;2024-01-15T03:05:14;7.37;;;4.17;;
20348;SDS011;10332;50.208;18.988;2024-01-15T03:07:42;6.97;;;4.17;;
20348;SDS011;10332;50.208;18.988;2024-01-15T03:10:09;7.63;;;4.40;;
20348;SDS011;10332;50.208;18.988;2024-01-15T03:12:37;8.97;;;4.40;;
20348;SDS011;10332;50.208;18.988;2024-01-15T03:15:04;7.50;;;4.60;;
20348;SDS011;10332;50.208;18.988;2024-01-15T03:17:32;7.77;;;4.23;;
20348;SDS011;10332;50.208;18.988;2024-01-15T03:19:59;7.63;;;4.23;;
20348;SDS011;10332;50.208;18.988;2024-01-15T03:22:27;7.90;;;4.47;;
20348;SDS011;10332;50.208;18.988;2024-01-15T03:24:54;9.63;;;4.70;;
20348;SDS011;10332;50.208;18.988;2024-01-15T03:27:22;8.50;;;4.50;;
20348;SDS011;10332;50.208;18.988;2024-01-15T03:29:49;7.30;;;4.57;;
20348;SDS011;10332;50.208;18.988;2024-01-15T03:32:16;8.53;;;4.40;;
20348;SDS011;10332;50.208;18.988;2024-01-15T03:34:44;8.53;;;4.37;;
20348;SDS011;10332;50.208;18.988;2024-01-15T03:37:13;8.27;;;4.20;;
20348;SDS011;10332;50.208;18.988;2024-01-15T03:39:41;8.70;;;4.53;;
20348;SDS011;10332;50.208;18.988;2024-01-15T03:42:08;7.70;;;4.43;;
20348;SDS011;10332;50.208;18.988;2024-01-15T03:44:36;8.83;;;4.30;;
20348;SDS011;10332;50.208;18.988;2024-01-15T03:47:03;10.60;;;4.90;;
20348;SDS011;10332;50.208;18.988;2024-01-15T03:49:31;7.97;;;4.40;;
20348;SDS011;10332;50.208;18.988;2024-01-15T03:51:58;8.27;;;4.40;;
20348;SDS011;10332;50.208;18.988;2024-01-15T03:54:26;8.87;;;5.00;;
20348;SDS011;10332;50.208;18.988;2024-01-15T03:56:53;8.47;;;4.83;;
20348;SDS011;10332;50.208;18.988;2024-01-15T03:59:21;10.27;;;5.10;;
20348;SDS011;10332;50.208;18.988;2024-01-15T04:01:49;10.23;;;5.07;;
20348;SDS011;10332;50.208;18.988;2024-01-15T04:04:19;10.07;;;4.77;;
20348;SDS011;10332;50.208;18.988;2024-01-15T04:06:47;9.07;;;4.73;;
20348;SDS011;10332;50.208;18.988;2024-01-15T04:09:15;10.27;;;5.00;;
20348;SDS011;10332;50.208;18.988;2024-01-15T04:11:42;9.97;;;5.30;;
20348;SDS011;10332;50.208;18.988;2024-01-15T04:14:10;9.27;;;5.27;;
20348;SDS011;10332;50.208;18.988;2024-01-15T04:16:37;9.77;;;5.10;;
20348;SDS011;10332;50.208;18.988;2024-01-15T04:19:05;12.57;;;5.63;;
20348;SDS011;10332;50.208;18.988;2024-01-15T04:21:32;9.10;;;4.63;;
20348;SDS011;10332;50.208;18.988;2024-01-15T04:24:00;8.43;;;4.50;;
20348;SDS011;10332;50.208;18.988;2024-01-15T04:26:27;8.63;;;4.77;;
20348;SDS011;10332;50.208;18.988;2024-01-15T04:28:54;7.57;;;4.50;;
20348;SDS011;10332;50.208;18.988;2024-01-15T04:31:25;10.50;;;4.63;;
20348;SDS011;10332;50.208;18.988;2024-01-15T04:33:54;7.93;;;4.50;;
20348;SDS011;10332;50.208;18.988;2024-01-15T04:36:22;9.13;;;4.73;;
20348;SDS011;10332;50.208;18.988;2024-01-15T04:38:50;9.83;;;5.13;;
20348;SDS011;10332;50.208;18.988;2024-01-15T04:41:17;9.60;;;5.23;;
20348;SDS011;10332;50.208;18.988;2024-01-15T04:43:44;13.60;;;6.43;;
20348;SDS011;10332;50.208;18.988;2024-01-15T04:46:13;13.77;;;5.93;;
20348;SDS011;10332;50.208;18.988;2024-01-15T04:48:40;10.10;;;5.63;;
20348;SDS011;10332;50.208;18.988;2024-01-15T04:51:08;9.33;;;5.33;;
20348;SDS011;10332;50.208;18.988;2024-01-15T04:53:36;10.93;;;5.33;;
20348;SDS011;10332;50.208;18.988;2024-01-15T04:56:03;13.17;;;6.10;;
20348;SDS011;10332;50.208;18.988;2024-01-15T04:58:31;9.13;;;4.73;;
20348;SDS011;10332;50.208;18.988;2024-01-15T05:00:58;12.10;;;5.00;;
20348;SDS011;10332;50.208;18.988;2024-01-15T05:03:26;10.67;;;5.97;;
20348;SDS011;10332;50.208;18.988;2024-01-15T05:05:53;15.20;;;6.57;;
20348;SDS011;10332;50.208;18.988;2024-01-15T05:08:21;15.30;;;6.90;;
20348;SDS011;10332;50.208;18.988;2024-01-15T05:10:48;17.67;;;7.20;;
20348;SDS011;10332;50.208;18.988;2024-01-15T05:13:16;15.10;;;7.27;;
20348;SDS011;10332;50.208;18.988;2024-01-15T05:15:43;17.67;;;7.30;;
20348;SDS011;10332;50.208;18.988;2024-01-15T05:18:10;13.40;;;6.40;;
20348;SDS011;10332;50.208;18.988;2024-01-15T05:20:38;12.53;;;6.73;;
20348;SDS011;10332;50.208;18.988;2024-01-15T05:23:06;12.80;;;5.63;;
20348;SDS011;10332;50.208;18.988;2024-01-15T05:25:33;10.57;;;5.83;;
20348;SDS011;10332;50.208;18.988;2024-01-15T05:28:00;10.70;;;5.73;;
20348;SDS011;10332;50.208;18.988;2024-01-15T05:30:28;15.37;;;6.77;;
20348;SDS011;10332;50.208;18.988;2024-01-15T05:32:56;12.37;;;6.47;;
20348;SDS011;10332;50.208;18.988;2024-01-15T05:35:24;12.67;;;6.30;;
20348;SDS011;10332;50.208;18.988;2024-01-15T05:37:51;12.70;;;6.60;;
20348;SDS011;10332;50.208;18.988;2024-01-15T05:40:19;11.77;;;6.03;;
20348;SDS011;10332;50.208;18.988;2024-01-15T05:42:46;11.17;;;5.80;;
20348;SDS011;10332;50.208;18.988;2024-01-15T05:45:14;12.77;;;6.70;;
20348;SDS011;10332;50.208;18.988;2024-01-15T05:47:41;11.47;;;5.57;;
20348;SDS011;10332;50.208;18.988;2024-01-15T05:50:10;11.53;;;5.60;;
20348;SDS011;10332;50.208;18.988;2024-01-15T05:52:38;11.60;;;5.73;;
20348;SDS011;10332;50.208;18.988;2024-01-15T05:55:05;13.67;;;6.30;;
20348;SDS011;10332;50.208;18.988;2024-01-15T05:57:33;11.27;;;5.70;;
20348;SDS011;10332;50.208;18.988;2024-01-15T06:00:00;13.50;;;6.07;;
20348;SDS011;10332;50.208;18.988;2024-01-15T06:02:28;10.93;;;5.93;;
20348;SDS011;10332;50.208;18.988;2024-01-15T06:04:55;12.70;;;5.93;;
20348;SDS011;10332;50.208;18.988;2024-01-15T06:07:23;14.80;;;6.50;;
20348;SDS011;10332;50.208;18.988;2024-01-15T06:09:50;13.87;;;6.50;;
20348;SDS011;10332;50.208;18.988;2024-01-15T06:12:18;12.93;;;6.60;;
20348;SDS011;10332;50.208;18.988;2024-01-15T06:14:45;13.63;;;6.67;;
20348;SDS011;10332;50.208;18.988;2024-01-15T06:17:12;13.43;;;6.27;;
20348;SDS011;10332;50.208;18.988;2024-01-15T06:19:40;12.80;;;5.63;;
20348;SDS011;10332;50.208;18.988;2024-01-15T06:22:07;14.00;;;6.30;;
20348;SDS011;10332;50.208;18.988;2024-01-15T06:24:35;11.30;;;6.00;;
20348;SDS011;10332;50.208;18.988;2024-01-15T06:27:02;12.90;;;6.10;;
20348;SDS011;10332;50.208;18.988;2024-01-15T06:29:29;11.37;;;6.07;;
20348;SDS011;10332;50.208;18.988;2024-01-15T06:31:57;12.53;;;6.10;;
20348;SDS011;10332;50.208;18.988;2024-01-15T06:34:24;11.47;;;5.97;;
20348;SDS011;10332;50.208;18.988;2024-01-15T06:36:52;12.90;;;6.67;;
20348;SDS011;10332;50.208;18.988;2024-01-15T06:39:19;13.80;;;6.63;;
20348;SDS011;10332;50.208;18.988;2024-01-15T06:41:47;15.33;;;6.80;;
20348;SDS011;10332;50.208;18.988;2024-01-15T06:44:14;13.33;;;6.43;;
20348;SDS011;10332;50.208;18.988;2024-01-15T06:46:42;15.07;;;6.37;;
20348;SDS011;10332;50.208;18.988;2024-01-15T06:49:11;14.77;;;7.43;;
20348;SDS011;10332;50.208;18.988;2024-01-15T06:51:39;15.47;;;6.93;;
20348;SDS011;10332;50.208;18.988;2024-01-15T06:54:06;14.37;;;7.33;;
20348;SDS011;10332;50.208;18.988;2024-01-15T06:56:34;17.67;;;7.70;;
20348;SDS011;10332;50.208;18.988;2024-01-15T06:59:01;18.03;;;8.03;;
20348;SDS011;10332;50.208;18.988;2024-01-15T07:01:29;16.27;;;7.33;;
20348;SDS011;10332;50.208;18.988;2024-01-15T07:03:57;20.93;;;8.97;;
20348;SDS011;10332;50.208;18.988;2024-01-15T07:06:24;17.07;;;7.53;;
20348;SDS011;10332;50.208;18.988;2024-01-15T07:08:52;16.10;;;7.90;;
20348;SDS011;10332;50.208;18.988;2024-01-15T07:11:19;13.03;;;6.70;;
20348;SDS011;10332;50.208;18.988;2024-01-15T07:13:46;13.17;;;7.07;;
20348;SDS011;10332;50.208;18.988;2024-01-15T07:16:14;14.13;;;7.30;;
20348;SDS011;10332;50.208;18.988;2024-01-15T07:19:00;15.63;;;7.20;;
20348;SDS011;10332;50.208;18.988;2024-01-15T07:21:27;14.47;;;7.27;;
20348;SDS011;10332;50.208;18.988;2024-01-15T07:23:54;16.63;;;7.77;;
20348;SDS011;10332;50.208;18.988;2024-01-15T07:26:22;17.17;;;9.00;;
20348;SDS011;10332;50.208;18.988;2024-01-15T07:28:49;16.53;;;8.80;;
20348;SDS011;10332;50.208;18.988;2024-01-15T07:31:17;14.93;;;7.73;;
20348;SDS011;10332;50.208;18.988;2024-01-15T07:33:44;14.20;;;7.57;;
20348;SDS011;10332;50.208;18.988;2024-01-15T07:36:13;15.53;;;7.57;;
20348;SDS011;10332;50.208;18.988;2024-01-15T07:38:41;17.00;;;8.17;;
20348;SDS011;10332;50.208;18.988;2024-01-15T07:41:08;18.70;;;8.90;;
20348;SDS011;10332;50.208;18.988;2024-01-15T07:43:35;19.17;;;9.13;;
20348;SDS011;10332;50.208;18.988;2024-01-15T07:46:03;16.20;;;8.07;;
20348;SDS011;10332;50.208;18.988;2024-01-15T07:48:30;19.67;;;9.00;;
20348;SDS011;10332;50.208;18.988;2024-01-15T07:50:58;15.97;;;8.13;;
20348;SDS011;10332;50.208;18.988;2024-01-15T07:53:25;14.13;;;7.90;;
20348;SDS011;10332;50.208;18.988;2024-01-15T07:55:53;15.23;;;8.03;;
20348;SDS011;10332;50.208;18.988;2024-01-15T07:58:20;16.77;;;8.23;;
20348;SDS011;10332;50.208;18.988;2024-01-15T08:00:47;17.53;;;8.83;;
20348;SDS011;10332;50.208;18.988;2024-01-15T08:03:15;18.47;;;8.60;;
20348;SDS011;10332;50.208;18.988;2024-01-15T08:05:42;18.30;;;8.57;;
20348;SDS011;10332;50.208;18.988;2024-01-15T08:08:10;17.07;;;9.23;;
20348;SDS011;10332;50.208;18.988;2024-01-15T08:10:38;17.42;;;8.73;;
20348;SDS011;10332;50.208;18.988;2024-01-15T08:13:05;18.47;;;9.73;;
20348;SDS011;10332;50.208;18.988;2024-01-15T08:15:34;18.10;;;9.00;;
20348;SDS011;10332;50.208;18.988;2024-01-15T08:18:02;18.90;;;9.53;;
20348;SDS011;10332;50.208;18.988;2024-01-15T08:20:29;18.97;;;9.80;;
20348;SDS011;10332;50.208;18.988;2024-01-15T08:22:57;19.17;;;9.33;;
20348;SDS011;10332;50.208;18.988;2024-01-15T08:25:25;21.10;;;10.57;;
20348;SDS011;10332;50.208;18.988;2024-01-15T08:27:52;16.43;;;8.83;;
20348;SDS011;10332;50.208;18.988;2024-01-15T08:30:20;15.37;;;8.17;;
20348;SDS011;10332;50.208;18.988;2024-01-15T08:32:47;18.30;;;9.37;;
20348;SDS011;10332;50.208;18.988;2024-01-15T08:35:15;18.53;;;9.10;;
20348;SDS011;10332;50.208;18.988;2024-01-15T08:37:43;16.33;;;8.67;;
20348;SDS011;10332;50.208;18.988;2024-01-15T08:40:10;17.50;;;8.73;;
20348;SDS011;10332;50.208;18.988;2024-01-15T08:42:37;17.40;;;9.70;;
20348;SDS011;10332;50.208;18.988;2024-01-15T08:45:05;18.13;;;9.33;;
20348;SDS011;10332;50.208;18.988;2024-01-15T08:47:32;15.43;;;9.10;;
20348;SDS011;10332;50.208;18.988;2024-01-15T08:50:02;18.73;;;9.38;;
20348;SDS011;10332;50.208;18.988;2024-01-15T08:52:29;18.33;;;9.47;;
20348;SDS011;10332;50.208;18.988;2024-01-15T08:54:57;18.20;;;9.70;;
20348;SDS011;10332;50.208;18.988;2024-01-15T08:57:24;17.35;;;9.25;;
20348;SDS011;10332;50.208;18.988;2024-01-15T08:59:52;19.10;;;9.33;;
20348;SDS011;10332;50.208;18.988;2024-01-15T09:02:21;15.67;;;9.07;;
20348;SDS011;10332;50.208;18.988;2024-01-15T09:04:49;17.08;;;9.48;;
20348;SDS011;10332;50.208;18.988;2024-01-15T09:07:16;16.33;;;8.48;;
20348;SDS011;10332;50.208;18.988;2024-01-15T09:09:43;20.60;;;9.93;;
20348;SDS011;10332;50.208;18.988;2024-01-15T09:12:11;18.90;;;10.57;;
20348;SDS011;10332;50.208;18.988;2024-01-15T09:14:42;21.27;;;11.07;;
20348;SDS011;10332;50.208;18.988;2024-01-15T09:17:10;20.50;;;10.33;;
20348;SDS011;10332;50.208;18.988;2024-01-15T09:19:38;20.95;;;11.73;;
20348;SDS011;10332;50.208;18.988;2024-01-15T09:22:08;23.75;;;12.30;;
20348;SDS011;10332;50.208;18.988;2024-01-15T09:24:36;26.83;;;11.88;;
20348;SDS011;10332;50.208;18.988;2024-01-15T09:27:03;22.98;;;11.73;;
20348;SDS011;10332;50.208;18.988;2024-01-15T09:29:31;25.57;;;11.53;;
20348;SDS011;10332;50.208;18.988;2024-01-15T09:31:58;25.63;;;12.02;;
20348;SDS011;10332;50.208;18.988;2024-01-15T09:34:26;24.40;;;11.00;;
20348;SDS011;10332;50.208;18.988;2024-01-15T09:36:53;23.15;;;11.50;;
20348;SDS011;10332;50.208;18.988;2024-01-15T09:39:21;22.55;;;11.52;;
20348;SDS011;10332;50.208;18.988;2024-01-15T09:41:50;21.60;;;10.73;;
20348;SDS011;10332;50.208;18.988;2024-01-15T09:44:17;22.40;;;11.75;;
20348;SDS011;10332;50.208;18.988;2024-01-15T09:46:46;24.23;;;12.30;;
20348;SDS011;10332;50.208;18.988;2024-01-15T09:49:17;25.70;;;12.82;;
20348;SDS011;10332;50.208;18.988;2024-01-15T09:51:44;24.73;;;12.05;;
20348;SDS011;10332;50.208;18.988;2024-01-15T09:54:24;26.25;;;12.55;;
20348;SDS011;10332;50.208;18.988;2024-01-15T09:56:53;21.08;;;11.52;;
20348;SDS011;10332;50.208;18.988;2024-01-15T09:59:22;22.63;;;12.25;;
20348;SDS011;10332;50.208;18.988;2024-01-15T10:01:51;22.30;;;11.35;;
20348;SDS011;10332;50.208;18.988;2024-01-15T10:04:19;22.63;;;12.77;;
20348;SDS011;10332;50.208;18.988;2024-01-15T10:06:47;20.27;;;11.30;;
20348;SDS011;10332;50.208;18.988;2024-01-15T10:09:17;22.00;;;11.57;;
20348;SDS011;10332;50.208;18.988;2024-01-15T10:11:45;23.23;;;11.70;;
20348;SDS011;10332;50.208;18.988;2024-01-15T10:14:15;24.05;;;12.65;;
20348;SDS011;10332;50.208;18.988;2024-01-15T10:16:42;22.60;;;11.18;;
20348;SDS011;10332;50.208;18.988;2024-01-15T10:19:10;21.20;;;11.40;;
20348;SDS011;10332;50.208;18.988;2024-01-15T10:21:38;25.73;;;12.40;;
20348;SDS011;10332;50.208;18.988;2024-01-15T10:24:06;27.13;;;13.38;;
20348;SDS011;10332;50.208;18.988;2024-01-15T10:26:36;24.38;;;12.07;;
20348;SDS011;10332;50.208;18.988;2024-01-15T10:29:04;26.02;;;13.20;;
20348;SDS011;10332;50.208;18.988;2024-01-15T10:31:31;22.83;;;12.70;;
20348;SDS011;10332;50.208;18.988;2024-01-15T10:34:09;21.48;;;11.65;;
20348;SDS011;10332;50.208;18.988;2024-01-15T10:36:39;23.65;;;12.13;;
20348;SDS011;10332;50.208;18.988;2024-01-15T10:39:08;26.23;;;12.40;;
20348;SDS011;10332;50.208;18.988;2024-01-15T10:41:35;24.08;;;12.48;;
20348;SDS011;10332;50.208;18.988;2024-01-15T10:44:03;24.35;;;12.65;;
20348;SDS011;10332;50.208;18.988;2024-01-15T10:46:30;22.88;;;12.07;;
20348;SDS011;10332;50.208;18.988;2024-01-15T10:48:59;23.77;;;12.30;;
20348;SDS011;10332;50.208;18.988;2024-01-15T10:51:27;20.13;;;10.82;;
20348;SDS011;10332;50.208;18.988;2024-01-15T10:53:55;18.45;;;10.38;;
20348;SDS011;10332;50.208;18.988;2024-01-15T10:56:23;19.75;;;10.07;;
20348;SDS011;10332;50.208;18.988;2024-01-15T10:58:54;18.63;;;9.73;;
20348;SDS011;10332;50.208;18.988;2024-01-15T11:01:26;20.77;;;10.40;;
20348;SDS011;10332;50.208;18.988;2024-01-15T11:03:57;17.98;;;9.88;;
20348;SDS011;10332;50.208;18.988;2024-01-15T11:06:25;19.80;;;11.10;;
20348;SDS011;10332;50.208;18.988;2024-01-15T11:08:56;22.73;;;10.93;;
20348;SDS011;10332;50.208;18.988;2024-01-15T11:11:23;24.02;;;11.88;;
20348;SDS011;10332;50.208;18.988;2024-01-15T11:13:52;24.50;;;12.02;;
20348;SDS011;10332;50.208;18.988;2024-01-15T11:16:19;21.58;;;11.15;;
20348;SDS011;10332;50.208;18.988;2024-01-15T11:21:26;22.98;;;12.43;;
20348;SDS011;10332;50.208;18.988;2024-01-15T11:23:58;24.42;;;12.38;;
20348;SDS011;10332;50.208;18.988;2024-01-15T11:26:30;24.30;;;12.40;;
20348;SDS011;10332;50.208;18.988;2024-01-15T11:29:00;23.77;;;12.43;;
20348;SDS011;10332;50.208;18.988;2024-01-15T11:31:57;22.40;;;11.65;;
20348;SDS011;10332;50.208;18.988;2024-01-15T11:34:18;22.42;;;11.82;;
20348;SDS011;10332;50.208;18.988;2024-01-15T11:42:02;21.13;;;11.30;;
20348;SDS011;10332;50.208;18.988;2024-01-15T11:44:30;22.10;;;11.75;;
20348;SDS011;10332;50.208;18.988;2024-01-15T11:46:59;23.25;;;11.75;;
20348;SDS011;10332;50.208;18.988;2024-01-15T11:51:58;23.65;;;12.55;;
20348;SDS011;10332;50.208;18.988;2024-01-15T11:54:28;25.10;;;13.02;;
20348;SDS011;10332;50.208;18.988;2024-01-15T11:57:00;24.55;;;12.85;;
20348;SDS011;10332;50.208;18.988;2024-01-15T11:59:30;25.35;;;12.52;;
20348;SDS011;10332;50.208;18.988;2024-01-15T12:01:58;23.67;;;12.60;;
20348;SDS011;10332;50.208;18.988;2024-01-15T12:04:25;23.55;;;12.57;;
20348;SDS011;10332;50.208;18.988;2024-01-15T12:06:53;25.52;;;12.88;;
20348;SDS011;10332;50.208;18.988;2024-01-15T12:09:21;27.25;;;12.75;;
20348;SDS011;10332;50.208;18.988;2024-01-15T12:11:51;28.08;;;12.20;;
20348;SDS011;10332;50.208;18.988;2024-01-15T12:14:28;26.25;;;12.55;;
20348;SDS011;10332;50.208;18.988;2024-01-15T12:16:55;20.40;;;10.73;;
20348;SDS011;10332;50.208;18.988;2024-01-15T12:19:23;21.80;;;11.60;;
20348;SDS011;10332;50.208;18.988;2024-01-15T12:21:51;23.70;;;12.30;;
20348;SDS011;10332;50.208;18.988;2024-01-15T12:24:19;24.10;;;12.00;;
20348;SDS011;10332;50.208;18.988;2024-01-15T12:26:46;21.45;;;11.10;;
20348;SDS011;10332;50.208;18.988;2024-01-15T12:29:14;20.95;;;11.10;;
20348;SDS011;10332;50.208;18.988;2024-01-15T12:31:46;23.33;;;11.48;;
20348;SDS011;10332;50.208;18.988;2024-01-15T12:34:16;20.70;;;10.48;;
20348;SDS011;10332;50.208;18.988;2024-01-15T12:36:46;22.80;;;10.65;;
20348;SDS011;10332;50.208;18.988;2024-01-15T12:39:14;22.38;;;10.75;;
20348;SDS011;10332;50.208;18.988;2024-01-15T12:41:42;22.75;;;11.23;;
20348;SDS011;10332;50.208;18.988;2024-01-15T12:44:10;19.53;;;10.50;;
20348;SDS011;10332;50.208;18.988;2024-01-15T12:46:38;27.53;;;12.20;;
20348;SDS011;10332;50.208;18.988;2024-01-15T12:49:07;21.85;;;11.30;;
20348;SDS011;10332;50.208;18.988;2024-01-15T12:51:35;17.63;;;9.57;;
20348;SDS011;10332;50.208;18.988;2024-01-15T12:54:03;19.50;;;10.20;;
20348;SDS011;10332;50.208;18.988;2024-01-15T12:56:30;20.57;;;10.40;;
20348;SDS011;10332;50.208;18.988;2024-01-15T12:58:57;23.08;;;11.45;;
20348;SDS011;10332;50.208;18.988;2024-01-15T13:01:24;21.55;;;10.80;;
20348;SDS011;10332;50.208;18.988;2024-01-15T13:03:53;23.58;;;11.43;;
20348;SDS011;10332;50.208;18.988;2024-01-15T13:06:20;23.43;;;11.90;;
20348;SDS011;10332;50.208;18.988;2024-01-15T13:08:48;21.33;;;10.95;;
20348;SDS011;10332;50.208;18.988;2024-01-15T13:11:16;24.67;;;11.63;;
20348;SDS011;10332;50.208;18.988;2024-01-15T13:13:45;22.40;;;12.17;;
20348;SDS011;10332;50.208;18.988;2024-01-15T13:16:12;23.73;;;11.67;;
20348;SDS011;10332;50.208;18.988;2024-01-15T13:18:40;25.27;;;12.55;;
20348;SDS011;10332;50.208;18.988;2024-01-15T13:21:08;31.13;;;12.60;;
20348;SDS011;10332;50.208;18.988;2024-01-15T13:23:35;26.15;;;13.15;;
20348;SDS011;10332;50.208;18.988;2024-01-15T13:26:04;28.40;;;13.27;;
20348;SDS011;10332;50.208;18.988;2024-01-15T13:28:32;21.98;;;11.15;;
20348;SDS011;10332;50.208;18.988;2024-01-15T13:31:00;23.67;;;11.60;;
20348;SDS011;10332;50.208;18.988;2024-01-15T13:33:29;23.77;;;11.77;;
20348;SDS011;10332;50.208;18.988;2024-01-15T13:35:57;22.13;;;10.93;;
20348;SDS011;10332;50.208;18.988;2024-01-15T13:38:24;21.73;;;10.87;;
20348;SDS011;10332;50.208;18.988;2024-01-15T13:40:51;21.20;;;10.33;;
20348;SDS011;10332;50.208;18.988;2024-01-15T13:43:19;23.33;;;10.13;;
20348;SDS011;10332;50.208;18.988;2024-01-15T13:45:46;19.45;;;9.88;;
20348;SDS011;10332;50.208;18.988;2024-01-15T13:48:14;19.52;;;9.65;;
20348;SDS011;10332;50.208;18.988;2024-01-15T13:50:41;21.80;;;10.00;;
20348;SDS011;10332;50.208;18.988;2024-01-15T13:53:09;20.45;;;9.40;;
20348;SDS011;10332;50.208;18.988;2024-01-15T13:55:36;18.40;;;10.02;;
20348;SDS011;10332;50.208;18.988;2024-01-15T13:58:04;18.50;;;8.87;;
20348;SDS011;10332;50.208;18.988;2024-01-15T14:00:32;20.55;;;9.82;;
20348;SDS011;10332;50.208;18.988;2024-01-15T14:03:00;17.93;;;8.97;;
20348;SDS011;10332;50.208;18.988;2024-01-15T14:05:28;17.17;;;9.27;;
20348;SDS011;10332;50.208;18.988;2024-01-15T14:07:56;21.03;;;9.73;;
20348;SDS011;10332;50.208;18.988;2024-01-15T14:10:23;20.38;;;9.38;;
20348;SDS011;10332;50.208;18.988;2024-01-15T14:12:51;18.08;;;9.15;;
20348;SDS011;10332;50.208;18.988;2024-01-15T14:15:18;20.60;;;9.25;;
20348;SDS011;10332;50.208;18.988;2024-01-15T14:17:48;18.43;;;9.33;;
20348;SDS011;10332;50.208;18.988;2024-01-15T14:20:15;21.80;;;10.00;;
20348;SDS011;10332;50.208;18.988;2024-01-15T14:22:48;18.27;;;9.33;;
20348;SDS011;10332;50.208;18.988;2024-01-15T14:25:15;22.87;;;10.50;;
20348;SDS011;10332;50.208;18.988;2024-01-15T14:27:43;21.85;;;10.07;;
20348;SDS011;10332;50.208;18.988;2024-01-15T14:30:10;21.03;;;10.03;;
20348;SDS011;10332;50.208;18.988;2024-01-15T14:32:40;20.38;;;9.63;;
20348;SDS011;10332;50.208;18.988;2024-01-15T14:35:07;23.27;;;10.60;;
20348;SDS011;10332;50.208;18.988;2024-01-15T14:37:37;19.53;;;9.67;;
20348;SDS011;10332;50.208;18.988;2024-01-15T14:40:06;21.53;;;9.43;;